createdAt,value
2022-08-20T00:03:09.341Z,58.61
2022-08-20T00:08:13.130Z,62.29
2022-08-20T00:13:21.756Z,66.72
2022-08-20T00:18:24.634Z,61.83
2022-08-20T00:23:27.442Z,58.52
2022-08-20T00:28:30.258Z,63.39
2022-08-20T00:33:33.313Z,62.17
2022-08-20T00:38:37.947Z,57.31
2022-08-20T00:43:48.473Z,60.41
2022-08-20T00:48:55.871Z,68.40
2022-08-20T00:54:22.893Z,62.22
2022-08-20T00:59:31.027Z,62.12
2022-08-20T01:04:35.649Z,64.77
2022-08-20T01:09:58.155Z,61.56
2022-08-20T01:15:04.778Z,57.54
2022-08-20T01:20:16.015Z,60.98
2022-08-20T01:25:44.512Z,65.06
2022-08-20T01:30:47.205Z,63.95
2022-08-20T01:35:50.543Z,61.36
2022-08-20T01:41:30.513Z,56.85
2022-08-20T01:46:38.142Z,60.52
2022-08-20T01:51:46.778Z,67.67
2022-08-20T01:57:02.401Z,63.35
2022-08-20T02:02:07.206Z,60.36
2022-08-20T02:07:18.939Z,57.75
2022-08-20T02:12:21.678Z,62.09
2022-08-20T02:17:25.975Z,65.66
2022-08-20T02:22:40.584Z,60.81
2022-08-20T02:27:49.641Z,58.33
2022-08-20T02:32:52.395Z,63.34
2022-08-20T02:37:59.216Z,63.51
2022-08-20T02:43:04.543Z,59.18
2022-08-20T02:48:07.398Z,58.96
2022-08-20T02:53:10.082Z,65.59
2022-08-20T02:58:13.207Z,62.85
2022-08-20T03:03:22.514Z,59.69
2022-08-20T03:08:27.296Z,58.99
2022-08-20T03:13:30.080Z,65.42
2022-08-20T03:18:37.523Z,62.48
2022-08-20T03:23:41.022Z,58.58
2022-08-20T03:28:44.369Z,62.51
2022-08-20T03:33:52.980Z,64.67
2022-08-20T03:39:03.477Z,58.62
2022-08-20T03:44:07.192Z,59.14
2022-08-20T03:49:10.301Z,65.63
2022-08-20T03:54:13.104Z,60.44
2022-08-20T03:59:15.813Z,57.87
2022-08-20T04:04:18.528Z,61.66
2022-08-20T04:09:21.304Z,65.31
2022-08-20T04:14:23.983Z,60.31
2022-08-20T04:19:30.135Z,58.37
2022-08-20T04:24:35.711Z,64.34
2022-08-20T04:29:43.119Z,63.91
2022-08-20T04:34:47.330Z,60.80
2022-08-20T04:40:26.543Z,57.30
2022-08-20T04:45:29.213Z,61.15
2022-08-20T04:50:36.533Z,67.64
2022-08-20T04:55:42.903Z,62.77
2022-08-20T05:00:48.302Z,60.80
2022-08-20T05:05:52.022Z,57.56
2022-08-20T05:10:58.126Z,59.18
2022-08-20T05:16:19.494Z,67.31
2022-08-20T05:21:22.217Z,61.69
2022-08-20T05:26:26.528Z,58.18
2022-08-20T05:31:31.713Z,65.35
2022-08-20T05:36:37.213Z,60.87
2022-08-20T05:41:40.980Z,57.71
2022-08-20T05:46:45.523Z,61.70
2022-08-20T05:51:51.090Z,63.70
2022-08-20T05:56:53.949Z,57.59
2022-08-20T06:01:56.645Z,59.84
2022-08-20T06:07:05.408Z,65.26
2022-08-20T06:12:09.471Z,58.24
2022-08-20T06:17:15.350Z,58.10
2022-08-20T06:22:23.282Z,63.07
2022-08-20T06:27:29.658Z,56.55
2022-08-20T06:32:33.840Z,58.98
2022-08-20T06:37:39.417Z,63.62
2022-08-20T06:42:48.073Z,57.10
2022-08-20T06:47:53.912Z,59.23
2022-08-20T06:52:57.003Z,62.65
2022-08-20T06:58:02.726Z,55.57
2022-08-20T07:03:05.751Z,57.27
2022-08-20T07:08:14.662Z,60.39
2022-08-20T07:13:17.547Z,62.60
2022-08-20T07:18:28.416Z,54.16
2022-08-20T07:23:31.803Z,57.06
2022-08-20T07:28:34.736Z,57.96
2022-08-20T07:33:40.660Z,60.06
2022-08-20T07:38:46.757Z,61.81
2022-08-20T07:43:49.494Z,59.03
2022-08-20T07:48:52.310Z,53.32
2022-08-20T07:53:55.095Z,55.53
2022-08-20T07:58:59.943Z,56.60
2022-08-20T08:04:03.150Z,57.47
2022-08-20T08:09:09.813Z,58.73
2022-08-20T08:14:13.349Z,59.40
2022-08-20T08:19:18.364Z,58.75
2022-08-20T08:24:25.314Z,59.88
2022-08-20T08:29:30.699Z,60.28
2022-08-20T08:34:36.500Z,60.74
2022-08-20T08:39:39.277Z,60.52
2022-08-20T08:44:42.264Z,60.47
2022-08-20T08:49:47.567Z,60.87
2022-08-20T08:54:56.511Z,61.51
2022-08-20T09:00:03.913Z,63.27
2022-08-20T09:05:17.828Z,52.29
2022-08-20T09:10:22.970Z,53.54
2022-08-20T09:15:26.300Z,54.67
2022-08-20T09:20:29.265Z,55.29
2022-08-20T09:25:32.085Z,54.23
2022-08-20T09:30:35.054Z,54.81
2022-08-20T09:35:40.452Z,55.45
2022-08-20T09:40:43.382Z,54.24
2022-08-20T09:45:46.075Z,54.63
2022-08-20T09:50:50.208Z,54.00
2022-08-20T09:55:56.056Z,53.94
2022-08-20T10:01:07.362Z,53.34
2022-08-20T10:06:19.945Z,53.48
2022-08-20T10:11:22.775Z,53.46
2022-08-20T10:16:25.509Z,53.65
2022-08-20T10:21:30.097Z,53.33
2022-08-20T10:26:33.114Z,54.71
2022-08-20T10:31:35.849Z,54.36
2022-08-20T10:36:38.580Z,54.06
2022-08-20T10:41:41.607Z,55.15
2022-08-20T10:46:45.868Z,54.99
2022-08-20T10:51:48.607Z,55.62
2022-08-20T10:56:51.457Z,55.68
2022-08-20T11:01:54.240Z,55.82
2022-08-20T11:06:57.009Z,55.91
2022-08-20T11:11:59.810Z,55.44
2022-08-20T11:17:03.206Z,54.85
2022-08-20T11:22:05.919Z,55.07
2022-08-20T11:27:09.780Z,54.41
2022-08-20T11:32:12.581Z,52.91
2022-08-20T11:37:17.202Z,53.61
2022-08-20T11:42:20.161Z,52.90
2022-08-20T11:47:26.875Z,51.56
2022-08-20T11:52:30.119Z,49.74
2022-08-20T11:57:35.360Z,50.61
2022-08-20T12:02:38.130Z,50.02
2022-08-20T12:07:41.537Z,50.17
2022-08-20T12:12:44.335Z,50.30
2022-08-20T12:17:47.272Z,50.83
2022-08-20T12:22:50.189Z,49.55
2022-08-20T12:27:53.113Z,50.31
2022-08-20T12:32:56.025Z,51.09
2022-08-20T12:38:02.312Z,50.82
2022-08-20T12:43:05.595Z,50.51
2022-08-20T12:48:11.687Z,50.16
2022-08-20T12:53:14.422Z,50.00
2022-08-20T12:58:17.098Z,49.66
2022-08-20T13:03:22.073Z,50.16
2022-08-20T13:08:24.793Z,50.20
2022-08-20T13:13:27.629Z,49.82
2022-08-20T13:18:30.429Z,49.00
2022-08-20T13:23:33.121Z,49.48
2022-08-20T13:28:36.166Z,49.18
2022-08-20T13:33:38.878Z,49.40
2022-08-20T13:38:41.631Z,48.67
2022-08-20T13:43:44.326Z,48.51
2022-08-20T13:48:47.018Z,49.00
2022-08-20T13:53:49.785Z,49.53
2022-08-20T13:58:53.117Z,49.57
2022-08-20T14:03:56.018Z,49.60
2022-08-20T14:08:58.965Z,49.85
2022-08-20T14:14:02.747Z,50.67
2022-08-20T14:19:06.071Z,51.61
2022-08-20T14:24:08.796Z,52.16
2022-08-20T14:29:11.523Z,54.16
2022-08-20T14:34:14.237Z,55.16
2022-08-20T14:39:20.517Z,56.82
2022-08-20T14:44:23.411Z,58.25
2022-08-20T14:49:26.203Z,58.58
2022-08-20T14:54:29.082Z,59.93
2022-08-20T14:59:32.158Z,60.49
2022-08-20T15:04:36.061Z,61.13
2022-08-20T15:09:39.011Z,61.55
2022-08-20T15:14:41.718Z,61.85
2022-08-20T15:19:44.666Z,60.72
2022-08-20T15:24:48.341Z,57.18
2022-08-20T15:29:52.464Z,58.97
2022-08-20T15:34:55.175Z,60.50
2022-08-20T15:39:57.913Z,60.67
2022-08-20T15:45:00.730Z,66.41
2022-08-20T15:50:09.374Z,56.92
2022-08-20T15:55:17.850Z,57.50
2022-08-20T16:00:25.812Z,58.18
2022-08-20T16:05:50.486Z,59.38
2022-08-20T16:11:18.449Z,67.96
2022-08-20T16:16:33.284Z,62.39
2022-08-20T16:21:40.435Z,59.04
2022-08-20T16:27:13.423Z,64.63
2022-08-20T16:32:25.868Z,61.90
2022-08-20T16:37:33.187Z,59.55
2022-08-20T16:42:42.426Z,61.73
2022-08-20T16:47:46.955Z,67.17
2022-08-20T16:52:51.785Z,61.98
2022-08-20T16:57:54.948Z,60.29
2022-08-20T17:03:01.632Z,65.00
2022-08-20T17:08:07.450Z,66.18
2022-08-20T17:13:15.996Z,62.35
2022-08-20T17:18:27.542Z,58.44
2022-08-20T17:23:31.027Z,63.85
2022-08-20T17:28:35.704Z,65.87
2022-08-20T17:33:39.662Z,62.74
2022-08-20T17:38:52.870Z,60.23
2022-08-20T17:44:07.717Z,57.06
2022-08-20T17:49:13.108Z,64.98
2022-08-20T17:54:27.301Z,60.69
2022-08-20T18:00:00.925Z,62.12
2022-08-20T18:05:06.662Z,65.65
2022-08-20T18:10:14.502Z,61.48
2022-08-20T18:15:23.764Z,60.29
2022-08-20T18:20:37.758Z,59.35
2022-08-20T18:25:54.886Z,63.32
2022-08-20T18:31:02.112Z,61.80
2022-08-20T18:36:07.115Z,61.65
2022-08-20T18:41:30.061Z,66.50
2022-08-20T18:46:34.043Z,62.33
2022-08-20T18:51:42.616Z,59.07
2022-08-20T18:56:45.286Z,60.62
2022-08-20T19:01:49.515Z,63.78
2022-08-20T19:06:58.044Z,61.68
2022-08-20T19:12:05.139Z,58.45
2022-08-20T19:17:15.065Z,61.14
2022-08-20T19:22:20.898Z,64.25
2022-08-20T19:27:24.697Z,60.16
2022-08-20T19:32:33.010Z,66.34
2022-08-20T19:37:50.839Z,64.48
2022-08-20T19:42:56.227Z,63.64
2022-08-20T19:48:27.385Z,61.87
2022-08-20T19:53:33.412Z,62.42
2022-08-20T19:58:37.494Z,65.33
2022-08-20T20:03:40.677Z,64.17
2022-08-20T20:08:55.094Z,65.19
2022-08-20T20:14:04.518Z,64.02
2022-08-20T20:19:25.847Z,66.22
2022-08-20T20:24:31.652Z,65.06
2022-08-20T20:29:37.041Z,66.67
2022-08-20T20:34:55.066Z,68.07
2022-08-20T20:40:19.062Z,69.38
2022-08-20T20:45:32.154Z,69.88
2022-08-20T20:50:36.899Z,68.36
2022-08-20T20:55:41.911Z,69.36
2022-08-20T21:00:44.596Z,68.01
2022-08-20T21:05:47.535Z,68.25
2022-08-20T21:10:50.280Z,66.73
2022-08-20T21:15:53.038Z,66.11
2022-08-20T21:20:55.821Z,65.69
2022-08-20T21:26:00.124Z,65.28
2022-08-20T21:31:03.145Z,64.03
2022-08-20T21:36:06.402Z,65.55
2022-08-20T21:41:09.210Z,65.03
2022-08-20T21:46:12.735Z,65.57
2022-08-20T21:51:15.656Z,64.62
2022-08-20T21:56:18.527Z,63.52
2022-08-20T22:01:21.574Z,63.01
2022-08-20T22:06:24.972Z,62.96
2022-08-20T22:11:28.195Z,61.82
2022-08-20T22:16:30.972Z,62.68
2022-08-20T22:21:35.245Z,62.54
2022-08-20T22:26:40.334Z,63.22
2022-08-20T22:31:44.040Z,63.00
2022-08-20T22:36:48.054Z,62.85
2022-08-20T22:41:50.986Z,62.95
2022-08-20T22:46:56.795Z,64.20
2022-08-20T22:52:00.218Z,64.83
2022-08-20T22:57:03.439Z,64.96
2022-08-20T23:02:12.924Z,65.71
2022-08-20T23:07:17.990Z,65.61
2022-08-20T23:12:20.782Z,64.92
2022-08-20T23:17:23.745Z,66.82
2022-08-20T23:22:26.602Z,66.44
2022-08-20T23:27:29.689Z,65.65
2022-08-20T23:32:32.383Z,65.03
2022-08-20T23:37:40.300Z,65.31
2022-08-20T23:42:43.277Z,64.63
2022-08-20T23:47:46.380Z,64.22
2022-08-20T23:52:49.245Z,63.50
2022-08-20T23:57:52.370Z,62.72
